sensor_id;sensor_type;location;lat;lon;timestamp;P1;durP1;ratioP1;P2;durP2;ratioP2
37407;SDS011;24866;50.248;8.252;2023-07-13T00:02:20;4.07;;;1.35;;
37407;SDS011;24866;50.248;8.252;2023-07-13T00:04:50;3.13;;;1.10;;
37407;SDS011;24866;50.248;8.252;2023-07-13T00:07:21;2.35;;;1.08;;
37407;SDS011;24866;50.248;8.252;2023-07-13T00:09:51;3.95;;;1.40;;
37407;SDS011;24866;50.248;8.252;2023-07-13T00:12:23;3.17;;;1.30;;
37407;SDS011;24866;50.248;8.252;2023-07-13T00:14:56;3.92;;;1.33;;
37407;SDS011;24866;50.248;8.252;2023-07-13T00:17:26;3.58;;;1.20;;
37407;SDS011;24866;50.248;8.252;2023-07-13T00:19:57;2.63;;;1.35;;
37407;SDS011;24866;50.248;8.252;2023-07-13T00:22:28;3.47;;;1.55;;
37407;SDS011;24866;50.248;8.252;2023-07-13T00:24:58;3.10;;;1.25;;
37407;SDS011;24866;50.248;8.252;2023-07-13T00:27:28;4.20;;;1.40;;
37407;SDS011;24866;50.248;8.252;2023-07-13T00:29:59;2.55;;;1.30;;
37407;SDS011;24866;50.248;8.252;2023-07-13T00:32:30;4.15;;;1.48;;
37407;SDS011;24866;50.248;8.252;2023-07-13T00:35:00;3.22;;;1.17;;
37407;SDS011;24866;50.248;8.252;2023-07-13T00:37:33;2.72;;;1.35;;
37407;SDS011;24866;50.248;8.252;2023-07-13T00:40:06;3.90;;;1.30;;
37407;SDS011;24866;50.248;8.252;2023-07-13T00:46:02;3.78;;;1.17;;
37407;SDS011;24866;50.248;8.252;2023-07-13T00:48:17;3.10;;;1.25;;
37407;SDS011;24866;50.248;8.252;2023-07-13T00:50:49;2.92;;;1.55;;
37407;SDS011;24866;50.248;8.252;2023-07-13T00:53:23;4.32;;;1.55;;
37407;SDS011;24866;50.248;8.252;2023-07-13T00:55:54;4.05;;;1.52;;
37407;SDS011;24866;50.248;8.252;2023-07-13T00:58:25;4.22;;;1.73;;
37407;SDS011;24866;50.248;8.252;2023-07-13T01:00:57;3.63;;;1.55;;
37407;SDS011;24866;50.248;8.252;2023-07-13T01:03:26;4.10;;;1.50;;
37407;SDS011;24866;50.248;8.252;2023-07-13T01:05:57;5.55;;;1.70;;
37407;SDS011;24866;50.248;8.252;2023-07-13T01:08:28;5.60;;;1.65;;
37407;SDS011;24866;50.248;8.252;2023-07-13T01:10:58;3.67;;;1.65;;
37407;SDS011;24866;50.248;8.252;2023-07-13T01:13:28;3.35;;;1.40;;
37407;SDS011;24866;50.248;8.252;2023-07-13T01:15:58;2.35;;;1.27;;
37407;SDS011;24866;50.248;8.252;2023-07-13T01:18:32;4.00;;;1.65;;
37407;SDS011;24866;50.248;8.252;2023-07-13T01:21:04;3.85;;;1.83;;
37407;SDS011;24866;50.248;8.252;2023-07-13T01:23:34;3.00;;;1.55;;
37407;SDS011;24866;50.248;8.252;2023-07-13T01:26:04;4.28;;;1.60;;
37407;SDS011;24866;50.248;8.252;2023-07-13T01:28:33;3.45;;;1.20;;
37407;SDS011;24866;50.248;8.252;2023-07-13T01:31:05;3.63;;;1.30;;
37407;SDS011;24866;50.248;8.252;2023-07-13T01:33:36;3.05;;;1.50;;
37407;SDS011;24866;50.248;8.252;2023-07-13T01:36:09;3.15;;;1.20;;
37407;SDS011;24866;50.248;8.252;2023-07-13T01:38:40;2.50;;;1.35;;
37407;SDS011;24866;50.248;8.252;2023-07-13T01:41:10;4.25;;;1.60;;
37407;SDS011;24866;50.248;8.252;2023-07-13T01:43:40;2.35;;;1.50;;
37407;SDS011;24866;50.248;8.252;2023-07-13T01:46:10;3.13;;;1.02;;
37407;SDS011;24866;50.248;8.252;2023-07-13T01:48:39;4.85;;;1.20;;
37407;SDS011;24866;50.248;8.252;2023-07-13T01:51:11;2.40;;;1.40;;
37407;SDS011;24866;50.248;8.252;2023-07-13T01:53:41;3.13;;;1.30;;
37407;SDS011;24866;50.248;8.252;2023-07-13T01:56:11;2.88;;;1.30;;
37407;SDS011;24866;50.248;8.252;2023-07-13T01:58:41;2.80;;;1.20;;
37407;SDS011;24866;50.248;8.252;2023-07-13T02:01:11;3.47;;;1.40;;
37407;SDS011;24866;50.248;8.252;2023-07-13T02:03:41;3.60;;;1.13;;
37407;SDS011;24866;50.248;8.252;2023-07-13T02:06:12;3.58;;;1.42;;
37407;SDS011;24866;50.248;8.252;2023-07-13T02:08:42;2.92;;;1.35;;
37407;SDS011;24866;50.248;8.252;2023-07-13T02:11:11;3.97;;;1.80;;
37407;SDS011;24866;50.248;8.252;2023-07-13T02:13:41;4.70;;;1.58;;
37407;SDS011;24866;50.248;8.252;2023-07-13T02:16:11;3.78;;;1.25;;
37407;SDS011;24866;50.248;8.252;2023-07-13T02:18:41;4.45;;;1.70;;
37407;SDS011;24866;50.248;8.252;2023-07-13T02:21:12;4.88;;;1.48;;
37407;SDS011;24866;50.248;8.252;2023-07-13T02:23:42;3.28;;;1.33;;
37407;SDS011;24866;50.248;8.252;2023-07-13T02:26:12;4.50;;;1.45;;
37407;SDS011;24866;50.248;8.252;2023-07-13T02:28:42;7.13;;;1.50;;
37407;SDS011;24866;50.248;8.252;2023-07-13T02:31:12;3.00;;;1.27;;
37407;SDS011;24866;50.248;8.252;2023-07-13T02:33:43;4.63;;;1.20;;
37407;SDS011;24866;50.248;8.252;2023-07-13T02:36:15;4.53;;;1.55;;
37407;SDS011;24866;50.248;8.252;2023-07-13T02:38:49;4.40;;;1.50;;
37407;SDS011;24866;50.248;8.252;2023-07-13T02:41:19;2.28;;;1.23;;
37407;SDS011;24866;50.248;8.252;2023-07-13T02:43:49;4.78;;;1.55;;
37407;SDS011;24866;50.248;8.252;2023-07-13T02:46:18;6.07;;;1.58;;
37407;SDS011;24866;50.248;8.252;2023-07-13T02:48:48;3.25;;;1.60;;
37407;SDS011;24866;50.248;8.252;2023-07-13T02:51:19;2.42;;;1.08;;
37407;SDS011;24866;50.248;8.252;2023-07-13T02:53:49;4.65;;;1.45;;
37407;SDS011;24866;50.248;8.252;2023-07-13T02:56:22;2.78;;;1.25;;
37407;SDS011;24866;50.248;8.252;2023-07-13T02:58:53;2.58;;;0.98;;
37407;SDS011;24866;50.248;8.252;2023-07-13T03:01:23;3.60;;;1.30;;
37407;SDS011;24866;50.248;8.252;2023-07-13T03:03:53;2.80;;;1.25;;
37407;SDS011;24866;50.248;8.252;2023-07-13T03:06:25;2.53;;;1.00;;
37407;SDS011;24866;50.248;8.252;2023-07-13T03:08:58;3.58;;;1.30;;
37407;SDS011;24866;50.248;8.252;2023-07-13T03:11:29;3.95;;;1.30;;
37407;SDS011;24866;50.248;8.252;2023-07-13T03:13:59;2.03;;;1.05;;
37407;SDS011;24866;50.248;8.252;2023-07-13T03:16:28;4.47;;;1.60;;
37407;SDS011;24866;50.248;8.252;2023-07-13T03:18:58;3.20;;;1.45;;
37407;SDS011;24866;50.248;8.252;2023-07-13T03:21:29;5.32;;;1.20;;
37407;SDS011;24866;50.248;8.252;2023-07-13T03:23:59;2.90;;;1.10;;
37407;SDS011;24866;50.248;8.252;2023-07-13T03:26:29;4.70;;;1.60;;
37407;SDS011;24866;50.248;8.252;2023-07-13T03:28:59;2.42;;;1.42;;
37407;SDS011;24866;50.248;8.252;2023-07-13T03:31:34;4.45;;;1.27;;
37407;SDS011;24866;50.248;8.252;2023-07-13T03:34:05;5.18;;;1.50;;
37407;SDS011;24866;50.248;8.252;2023-07-13T03:36:36;2.40;;;1.13;;
37407;SDS011;24866;50.248;8.252;2023-07-13T03:39:06;3.13;;;1.33;;
37407;SDS011;24866;50.248;8.252;2023-07-13T03:41:37;3.22;;;1.40;;
37407;SDS011;24866;50.248;8.252;2023-07-13T03:44:07;3.08;;;0.95;;
37407;SDS011;24866;50.248;8.252;2023-07-13T03:46:37;5.32;;;1.13;;
37407;SDS011;24866;50.248;8.252;2023-07-13T03:49:07;5.20;;;1.70;;
37407;SDS011;24866;50.248;8.252;2023-07-13T03:51:38;3.97;;;1.60;;
37407;SDS011;24866;50.248;8.252;2023-07-13T03:54:08;7.25;;;1.80;;
37407;SDS011;24866;50.248;8.252;2023-07-13T03:56:38;5.53;;;1.80;;
37407;SDS011;24866;50.248;8.252;2023-07-13T03:59:08;5.03;;;1.98;;
37407;SDS011;24866;50.248;8.252;2023-07-13T04:01:38;3.13;;;1.45;;
37407;SDS011;24866;50.248;8.252;2023-07-13T04:04:08;4.80;;;1.33;;
37407;SDS011;24866;50.248;8.252;2023-07-13T04:06:39;7.35;;;1.50;;
37407;SDS011;24866;50.248;8.252;2023-07-13T04:09:09;5.43;;;1.50;;
37407;SDS011;24866;50.248;8.252;2023-07-13T04:11:39;5.78;;;1.35;;
37407;SDS011;24866;50.248;8.252;2023-07-13T04:14:08;3.60;;;1.50;;
37407;SDS011;24866;50.248;8.252;2023-07-13T04:16:38;4.90;;;1.60;;
37407;SDS011;24866;50.248;8.252;2023-07-13T04:19:08;5.10;;;1.67;;
37407;SDS011;24866;50.248;8.252;2023-07-13T04:21:40;6.35;;;1.77;;
37407;SDS011;24866;50.248;8.252;2023-07-13T04:24:10;4.55;;;1.35;;
37407;SDS011;24866;50.248;8.252;2023-07-13T04:26:40;4.20;;;1.35;;
37407;SDS011;24866;50.248;8.252;2023-07-13T04:29:09;4.82;;;1.30;;
37407;SDS011;24866;50.248;8.252;2023-07-13T04:31:39;3.40;;;1.30;;
37407;SDS011;24866;50.248;8.252;2023-07-13T04:34:09;4.68;;;1.52;;
37407;SDS011;24866;50.248;8.252;2023-07-13T04:36:40;4.80;;;1.25;;
37407;SDS011;24866;50.248;8.252;2023-07-13T04:39:10;4.63;;;1.48;;
37407;SDS011;24866;50.248;8.252;2023-07-13T04:41:40;3.05;;;1.00;;
37407;SDS011;24866;50.248;8.252;2023-07-13T04:44:09;4.45;;;1.48;;
37407;SDS011;24866;50.248;8.252;2023-07-13T04:46:39;1.77;;;1.00;;
37407;SDS011;24866;50.248;8.252;2023-07-13T04:49:09;5.55;;;1.55;;
37407;SDS011;24866;50.248;8.252;2023-07-13T04:51:40;5.15;;;1.63;;
37407;SDS011;24866;50.248;8.252;2023-07-13T04:54:10;4.70;;;1.55;;
37407;SDS011;24866;50.248;8.252;2023-07-13T04:56:40;4.40;;;1.70;;
37407;SDS011;24866;50.248;8.252;2023-07-13T04:59:10;3.35;;;1.50;;
37407;SDS011;24866;50.248;8.252;2023-07-13T05:01:39;5.90;;;1.83;;
37407;SDS011;24866;50.248;8.252;2023-07-13T05:04:09;5.03;;;1.52;;
37407;SDS011;24866;50.248;8.252;2023-07-13T05:06:41;4.38;;;1.20;;
37407;SDS011;24866;50.248;8.252;2023-07-13T05:09:11;2.53;;;1.23;;
37407;SDS011;24866;50.248;8.252;2023-07-13T05:11:41;3.75;;;1.35;;
37407;SDS011;24866;50.248;8.252;2023-07-13T05:14:12;5.88;;;1.48;;
37407;SDS011;24866;50.248;8.252;2023-07-13T05:16:44;4.72;;;1.33;;
37407;SDS011;24866;50.248;8.252;2023-07-13T05:19:14;5.35;;;1.17;;
37407;SDS011;24866;50.248;8.252;2023-07-13T05:21:46;3.78;;;1.30;;
37407;SDS011;24866;50.248;8.252;2023-07-13T05:24:16;6.80;;;1.33;;
37407;SDS011;24866;50.248;8.252;2023-07-13T05:26:46;5.32;;;1.13;;
37407;SDS011;24866;50.248;8.252;2023-07-13T05:29:16;5.00;;;1.23;;
37407;SDS011;24866;50.248;8.252;2023-07-13T05:31:46;5.78;;;1.80;;
37407;SDS011;24866;50.248;8.252;2023-07-13T05:34:16;4.70;;;0.85;;
37407;SDS011;24866;50.248;8.252;2023-07-13T05:36:47;4.32;;;1.30;;
37407;SDS011;24866;50.248;8.252;2023-07-13T05:39:18;5.88;;;1.10;;
37407;SDS011;24866;50.248;8.252;2023-07-13T05:41:48;2.28;;;0.77;;
37407;SDS011;24866;50.248;8.252;2023-07-13T05:44:18;4.05;;;1.30;;
37407;SDS011;24866;50.248;8.252;2023-07-13T05:46:48;3.63;;;1.05;;
37407;SDS011;24866;50.248;8.252;2023-07-13T05:49:18;5.20;;;0.80;;
37407;SDS011;24866;50.248;8.252;2023-07-13T05:51:49;4.60;;;1.10;;
37407;SDS011;24866;50.248;8.252;2023-07-13T05:54:19;1.83;;;0.57;;
37407;SDS011;24866;50.248;8.252;2023-07-13T05:56:49;3.15;;;0.75;;
37407;SDS011;24866;50.248;8.252;2023-07-13T05:59:19;5.25;;;1.05;;
37407;SDS011;24866;50.248;8.252;2023-07-13T06:01:48;5.63;;;0.80;;
37407;SDS011;24866;50.248;8.252;2023-07-13T06:04:20;3.80;;;0.88;;
37407;SDS011;24866;50.248;8.252;2023-07-13T06:06:51;2.22;;;0.50;;
37407;SDS011;24866;50.248;8.252;2023-07-13T06:09:21;2.58;;;0.70;;
37407;SDS011;24866;50.248;8.252;2023-07-13T06:11:51;1.55;;;0.50;;
37407;SDS011;24866;50.248;8.252;2023-07-13T06:14:22;3.38;;;0.73;;
37407;SDS011;24866;50.248;8.252;2023-07-13T06:16:52;2.28;;;0.88;;
37407;SDS011;24866;50.248;8.252;2023-07-13T06:19:22;4.65;;;0.80;;
37407;SDS011;24866;50.248;8.252;2023-07-13T06:21:53;4.93;;;0.82;;
37407;SDS011;24866;50.248;8.252;2023-07-13T06:24:23;0.77;;;0.20;;
37407;SDS011;24866;50.248;8.252;2023-07-13T06:26:53;3.50;;;0.50;;
37407;SDS011;24866;50.248;8.252;2023-07-13T06:29:22;2.05;;;0.75;;
37407;SDS011;24866;50.248;8.252;2023-07-13T06:31:52;2.65;;;0.73;;
37407;SDS011;24866;50.248;8.252;2023-07-13T06:34:22;2.58;;;0.60;;
37407;SDS011;24866;50.248;8.252;2023-07-13T06:36:53;3.10;;;0.63;;
37407;SDS011;24866;50.248;8.252;2023-07-13T06:39:23;1.65;;;0.70;;
37407;SDS011;24866;50.248;8.252;2023-07-13T06:41:53;1.75;;;0.50;;
37407;SDS011;24866;50.248;8.252;2023-07-13T06:44:23;3.97;;;0.90;;
37407;SDS011;24866;50.248;8.252;2023-07-13T06:46:52;3.63;;;0.80;;
37407;SDS011;24866;50.248;8.252;2023-07-13T06:49:22;4.30;;;0.75;;
37407;SDS011;24866;50.248;8.252;2023-07-13T06:51:54;3.97;;;0.90;;
37407;SDS011;24866;50.248;8.252;2023-07-13T06:54:23;3.00;;;0.65;;
37407;SDS011;24866;50.248;8.252;2023-07-13T06:56:53;3.28;;;0.50;;
37407;SDS011;24866;50.248;8.252;2023-07-13T06:59:23;2.67;;;0.80;;
37407;SDS011;24866;50.248;8.252;2023-07-13T07:01:53;4.78;;;0.60;;
37407;SDS011;24866;50.248;8.252;2023-07-13T07:04:23;1.67;;;0.45;;
37407;SDS011;24866;50.248;8.252;2023-07-13T07:06:54;0.98;;;0.28;;
37407;SDS011;24866;50.248;8.252;2023-07-13T07:09:24;2.47;;;0.40;;
37407;SDS011;24866;50.248;8.252;2023-07-13T07:11:53;3.92;;;0.32;;
37407;SDS011;24866;50.248;8.252;2023-07-13T07:14:23;3.42;;;0.50;;
37407;SDS011;24866;50.248;8.252;2023-07-13T07:16:53;3.30;;;0.73;;
37407;SDS011;24866;50.248;8.252;2023-07-13T07:19:23;3.67;;;0.55;;
37407;SDS011;24866;50.248;8.252;2023-07-13T07:21:54;3.65;;;0.95;;
37407;SDS011;24866;50.248;8.252;2023-07-13T07:24:24;3.58;;;0.70;;
37407;SDS011;24866;50.248;8.252;2023-07-13T07:26:54;2.67;;;0.93;;
37407;SDS011;24866;50.248;8.252;2023-07-13T07:29:24;1.92;;;0.70;;
37407;SDS011;24866;50.248;8.252;2023-07-13T07:31:55;2.85;;;0.60;;
37407;SDS011;24866;50.248;8.252;2023-07-13T07:34:25;4.30;;;0.57;;
37407;SDS011;24866;50.248;8.252;2023-07-13T07:36:58;3.67;;;1.15;;
37407;SDS011;24866;50.248;8.252;2023-07-13T07:39:29;2.63;;;0.80;;
37407;SDS011;24866;50.248;8.252;2023-07-13T07:41:58;1.20;;;0.38;;
37407;SDS011;24866;50.248;8.252;2023-07-13T07:44:28;1.85;;;0.38;;
37407;SDS011;24866;50.248;8.252;2023-07-13T07:47:00;4.00;;;0.63;;
37407;SDS011;24866;50.248;8.252;2023-07-13T07:49:30;1.60;;;0.70;;
37407;SDS011;24866;50.248;8.252;2023-07-13T07:52:01;2.72;;;0.70;;
37407;SDS011;24866;50.248;8.252;2023-07-13T07:54:31;1.65;;;0.32;;
37407;SDS011;24866;50.248;8.252;2023-07-13T07:57:01;1.33;;;0.43;;
37407;SDS011;24866;50.248;8.252;2023-07-13T07:59:31;2.67;;;0.75;;
37407;SDS011;24866;50.248;8.252;2023-07-13T08:02:00;1.63;;;0.50;;
37407;SDS011;24866;50.248;8.252;2023-07-13T08:04:30;2.75;;;0.52;;
37407;SDS011;24866;50.248;8.252;2023-07-13T08:07:02;2.05;;;0.70;;
37407;SDS011;24866;50.248;8.252;2023-07-13T08:09:32;2.00;;;0.57;;
37407;SDS011;24866;50.248;8.252;2023-07-13T08:12:02;2.08;;;0.70;;
37407;SDS011;24866;50.248;8.252;2023-07-13T08:14:32;5.38;;;0.70;;
37407;SDS011;24866;50.248;8.252;2023-07-13T08:17:02;2.40;;;0.70;;
37407;SDS011;24866;50.248;8.252;2023-07-13T08:19:33;2.40;;;0.50;;
37407;SDS011;24866;50.248;8.252;2023-07-13T08:22:04;2.13;;;0.40;;
37407;SDS011;24866;50.248;8.252;2023-07-13T08:24:34;2.05;;;0.50;;
37407;SDS011;24866;50.248;8.252;2023-07-13T08:27:04;2.35;;;0.60;;
37407;SDS011;24866;50.248;8.252;2023-07-13T08:29:34;3.00;;;1.05;;
37407;SDS011;24866;50.248;8.252;2023-07-13T08:32:04;2.80;;;0.82;;
37407;SDS011;24866;50.248;8.252;2023-07-13T08:34:37;1.35;;;0.50;;
37407;SDS011;24866;50.248;8.252;2023-07-13T08:37:09;3.08;;;0.40;;
37407;SDS011;24866;50.248;8.252;2023-07-13T08:39:39;1.75;;;0.47;;
37407;SDS011;24866;50.248;8.252;2023-07-13T08:42:11;1.80;;;0.50;;
37407;SDS011;24866;50.248;8.252;2023-07-13T08:44:49;2.10;;;0.57;;
37407;SDS011;24866;50.248;8.252;2023-07-13T08:47:26;2.78;;;0.70;;
37407;SDS011;24866;50.248;8.252;2023-07-13T08:49:59;2.75;;;0.38;;
37407;SDS011;24866;50.248;8.252;2023-07-13T08:52:32;2.47;;;0.47;;
37407;SDS011;24866;50.248;8.252;2023-07-13T08:55:09;3.88;;;0.43;;
37407;SDS011;24866;50.248;8.252;2023-07-13T08:57:45;3.55;;;0.60;;
37407;SDS011;24866;50.248;8.252;2023-07-13T09:00:19;1.75;;;0.60;;
37407;SDS011;24866;50.248;8.252;2023-07-13T09:02:51;1.45;;;0.50;;
37407;SDS011;24866;50.248;8.252;2023-07-13T09:05:25;2.88;;;0.63;;
37407;SDS011;24866;50.248;8.252;2023-07-13T09:08:07;2.72;;;0.77;;
37407;SDS011;24866;50.248;8.252;2023-07-13T09:10:49;2.25;;;0.75;;
37407;SDS011;24866;50.248;8.252;2023-07-13T09:13:24;1.10;;;0.50;;
37407;SDS011;24866;50.248;8.252;2023-07-13T09:16:01;1.60;;;0.50;;
37407;SDS011;24866;50.248;8.252;2023-07-13T09:18:33;2.25;;;0.63;;
37407;SDS011;24866;50.248;8.252;2023-07-13T09:21:05;2.33;;;0.70;;
37407;SDS011;24866;50.248;8.252;2023-07-13T09:23:40;3.20;;;0.77;;
37407;SDS011;24866;50.248;8.252;2023-07-13T09:26:11;0.82;;;0.28;;
37407;SDS011;24866;50.248;8.252;2023-07-13T09:28:43;1.77;;;0.60;;
37407;SDS011;24866;50.248;8.252;2023-07-13T09:31:16;2.15;;;0.60;;
37407;SDS011;24866;50.248;8.252;2023-07-13T09:33:50;2.20;;;0.50;;
37407;SDS011;24866;50.248;8.252;2023-07-13T09:36:22;2.10;;;0.50;;
37407;SDS011;24866;50.248;8.252;2023-07-13T09:38:57;2.67;;;0.70;;
37407;SDS011;24866;50.248;8.252;2023-07-13T09:41:34;3.00;;;0.57;;
37407;SDS011;24866;50.248;8.252;2023-07-13T09:44:11;3.53;;;0.63;;
37407;SDS011;24866;50.248;8.252;2023-07-13T09:46:43;1.23;;;0.55;;
37407;SDS011;24866;50.248;8.252;2023-07-13T09:49:17;2.58;;;0.63;;
37407;SDS011;24866;50.248;8.252;2023-07-13T09:51:47;1.83;;;0.68;;
37407;SDS011;24866;50.248;8.252;2023-07-13T09:54:27;3.55;;;0.75;;
37407;SDS011;24866;50.248;8.252;2023-07-13T09:56:58;1.85;;;0.60;;
37407;SDS011;24866;50.248;8.252;2023-07-13T09:59:29;2.75;;;0.73;;
37407;SDS011;24866;50.248;8.252;2023-07-13T10:02:01;2.60;;;0.80;;
37407;SDS011;24866;50.248;8.252;2023-07-13T10:04:55;1.73;;;0.68;;
37407;SDS011;24866;50.248;8.252;2023-07-13T10:07:26;3.03;;;1.00;;
37407;SDS011;24866;50.248;8.252;2023-07-13T10:10:00;3.13;;;0.90;;
37407;SDS011;24866;50.248;8.252;2023-07-13T10:12:35;2.63;;;0.85;;
37407;SDS011;24866;50.248;8.252;2023-07-13T10:15:07;2.45;;;0.70;;
37407;SDS011;24866;50.248;8.252;2023-07-13T10:17:44;4.10;;;0.63;;
37407;SDS011;24866;50.248;8.252;2023-07-13T10:20:14;2.88;;;1.00;;
37407;SDS011;24866;50.248;8.252;2023-07-13T10:22:47;2.30;;;0.70;;
37407;SDS011;24866;50.248;8.252;2023-07-13T10:25:23;3.53;;;0.82;;
37407;SDS011;24866;50.248;8.252;2023-07-13T10:27:56;2.28;;;0.60;;
37407;SDS011;24866;50.248;8.252;2023-07-13T10:30:35;1.60;;;0.68;;
37407;SDS011;24866;50.248;8.252;2023-07-13T10:33:10;2.15;;;0.70;;
37407;SDS011;24866;50.248;8.252;2023-07-13T10:35:42;3.58;;;1.05;;
37407;SDS011;24866;50.248;8.252;2023-07-13T10:38:15;4.55;;;0.90;;
37407;SDS011;24866;50.248;8.252;2023-07-13T10:40:54;3.50;;;0.70;;
37407;SDS011;24866;50.248;8.252;2023-07-13T10:43:28;3.35;;;0.90;;
37407;SDS011;24866;50.248;8.252;2023-07-13T10:46:05;2.83;;;0.80;;
37407;SDS011;24866;50.248;8.252;2023-07-13T10:51:08;1.95;;;0.43;;
37407;SDS011;24866;50.248;8.252;2023-07-13T10:53:39;4.05;;;0.90;;
37407;SDS011;24866;50.248;8.252;2023-07-13T10:56:18;2.35;;;0.70;;
37407;SDS011;24866;50.248;8.252;2023-07-13T10:59:01;2.75;;;0.90;;
37407;SDS011;24866;50.248;8.252;2023-07-13T11:01:40;3.15;;;0.80;;
37407;SDS011;24866;50.248;8.252;2023-07-13T11:04:18;2.38;;;1.00;;
37407;SDS011;24866;50.248;8.252;2023-07-13T11:06:50;1.65;;;0.80;;
37407;SDS011;24866;50.248;8.252;2023-07-13T11:09:30;4.03;;;1.05;;
37407;SDS011;24866;50.248;8.252;2023-07-13T11:12:25;1.90;;;0.93;;
37407;SDS011;24866;50.248;8.252;2023-07-13T11:15:03;4.00;;;0.77;;
37407;SDS011;24866;50.248;8.252;2023-07-13T11:17:37;2.72;;;1.10;;
37407;SDS011;24866;50.248;8.252;2023-07-13T11:20:21;3.80;;;0.85;;
37407;SDS011;24866;50.248;8.252;2023-07-13T11:23:19;3.63;;;0.93;;
37407;SDS011;24866;50.248;8.252;2023-07-13T11:25:58;1.65;;;0.65;;
37407;SDS011;24866;50.248;8.252;2023-07-13T11:28:31;3.17;;;0.82;;
37407;SDS011;24866;50.248;8.252;2023-07-13T11:31:02;2.95;;;1.00;;
37407;SDS011;24866;50.248;8.252;2023-07-13T11:33:50;1.83;;;0.77;;
37407;SDS011;24866;50.248;8.252;2023-07-13T11:36:23;4.18;;;1.05;;
37407;SDS011;24866;50.248;8.252;2023-07-13T11:38:58;2.03;;;0.80;;
37407;SDS011;24866;50.248;8.252;2023-07-13T11:41:31;4.80;;;2.60;;
37407;SDS011;24866;50.248;8.252;2023-07-13T11:44:07;5.93;;;3.65;;
37407;SDS011;24866;50.248;8.252;2023-07-13T11:46:44;1.35;;;0.77;;
37407;SDS011;24866;50.248;8.252;2023-07-13T11:49:16;3.00;;;0.73;;
37407;SDS011;24866;50.248;8.252;2023-07-13T11:51:46;3.95;;;0.70;;
37407;SDS011;24866;50.248;8.252;2023-07-13T11:54:26;3.05;;;0.88;;
37407;SDS011;24866;50.248;8.252;2023-07-13T11:56:58;3.20;;;0.70;;
37407;SDS011;24866;50.248;8.252;2023-07-13T11:59:32;3.50;;;1.33;;
37407;SDS011;24866;50.248;8.252;2023-07-13T12:02:08;1.88;;;0.80;;
37407;SDS011;24866;50.248;8.252;2023-07-13T12:04:45;3.20;;;0.80;;
37407;SDS011;24866;50.248;8.252;2023-07-13T12:07:16;1.90;;;0.60;;
37407;SDS011;24866;50.248;8.252;2023-07-13T12:09:48;4.07;;;1.35;;
37407;SDS011;24866;50.248;8.252;2023-07-13T12:12:20;1.33;;;0.50;;
37407;SDS011;24866;50.248;8.252;2023-07-13T12:14:53;2.72;;;0.80;;
37407;SDS011;24866;50.248;8.252;2023-07-13T12:17:24;2.83;;;0.70;;
37407;SDS011;24866;50.248;8.252;2023-07-13T12:19:55;3.25;;;0.90;;
37407;SDS011;24866;50.248;8.252;2023-07-13T12:22:25;2.85;;;1.00;;
37407;SDS011;24866;50.248;8.252;2023-07-13T12:24:56;2.20;;;0.75;;
37407;SDS011;24866;50.248;8.252;2023-07-13T12:27:26;2.10;;;0.70;;
37407;SDS011;24866;50.248;8.252;2023-07-13T12:30:01;3.67;;;1.17;;
37407;SDS011;24866;50.248;8.252;2023-07-13T12:32:33;2.42;;;0.90;;
37407;SDS011;24866;50.248;8.252;2023-07-13T12:35:12;3.42;;;0.90;;
37407;SDS011;24866;50.248;8.252;2023-07-13T12:37:45;4.57;;;1.75;;
37407;SDS011;24866;50.248;8.252;2023-07-13T12:40:16;3.30;;;1.10;;
37407;SDS011;24866;50.248;8.252;2023-07-13T12:42:48;4.57;;;1.10;;
37407;SDS011;24866;50.248;8.252;2023-07-13T12:45:22;2.27;;;0.80;;
37407;SDS011;24866;50.248;8.252;2023-07-13T12:47:54;5.03;;;0.88;;
37407;SDS011;24866;50.248;8.252;2023-07-13T12:50:29;3.08;;;0.80;;
37407;SDS011;24866;50.248;8.252;2023-07-13T12:53:04;4.88;;;0.77;;
37407;SDS011;24866;50.248;8.252;2023-07-13T12:55:40;1.52;;;0.63;;
37407;SDS011;24866;50.248;8.252;2023-07-13T12:58:14;3.70;;;1.05;;
37407;SDS011;24866;50.248;8.252;2023-07-13T13:00:50;4.28;;;1.25;;
37407;SDS011;24866;50.248;8.252;2023-07-13T13:03:26;4.05;;;0.73;;
37407;SDS011;24866;50.248;8.252;2023-07-13T13:06:02;2.75;;;1.00;;
37407;SDS011;24866;50.248;8.252;2023-07-13T13:08:34;2.50;;;0.90;;
37407;SDS011;24866;50.248;8.252;2023-07-13T13:11:09;2.70;;;0.80;;
37407;SDS011;24866;50.248;8.252;2023-07-13T13:13:38;4.65;;;1.00;;
37407;SDS011;24866;50.248;8.252;2023-07-13T13:16:10;3.50;;;1.00;;
37407;SDS011;24866;50.248;8.252;2023-07-13T13:18:46;2.45;;;1.05;;
37407;SDS011;24866;50.248;8.252;2023-07-13T13:21:16;5.15;;;0.82;;
37407;SDS011;24866;50.248;8.252;2023-07-13T13:23:47;2.35;;;0.70;;
37407;SDS011;24866;50.248;8.252;2023-07-13T13:26:18;2.22;;;0.60;;
37407;SDS011;24866;50.248;8.252;2023-07-13T13:28:48;4.07;;;0.80;;
37407;SDS011;24866;50.248;8.252;2023-07-13T13:31:20;1.40;;;0.55;;
37407;SDS011;24866;50.248;8.252;2023-07-13T13:33:50;3.45;;;1.00;;
37407;SDS011;24866;50.248;8.252;2023-07-13T13:36:20;6.75;;;1.10;;
37407;SDS011;24866;50.248;8.252;2023-07-13T13:41:22;4.07;;;1.10;;
37407;SDS011;24866;50.248;8.252;2023-07-13T13:43:52;8.02;;;1.13;;
37407;SDS011;24866;50.248;8.252;2023-07-13T13:46:24;0.75;;;0.50;;
37407;SDS011;24866;50.248;8.252;2023-07-13T13:48:56;2.10;;;0.82;;
37407;SDS011;24866;50.248;8.252;2023-07-13T13:51:26;6.05;;;1.02;;
37407;SDS011;24866;50.248;8.252;2023-07-13T13:53:57;3.42;;;1.05;;
37407;SDS011;24866;50.248;8.252;2023-07-13T13:56:27;3.03;;;0.90;;
37407;SDS011;24866;50.248;8.252;2023-07-13T13:58:57;2.50;;;0.85;;
37407;SDS011;24866;50.248;8.252;2023-07-13T14:01:28;3.95;;;0.90;;
37407;SDS011;24866;50.248;8.252;2023-07-13T14:04:00;3.10;;;0.98;;
37407;SDS011;24866;50.248;8.252;2023-07-13T14:06:30;2.60;;;0.73;;
37407;SDS011;24866;50.248;8.252;2023-07-13T14:09:00;2.90;;;1.05;;
37407;SDS011;24866;50.248;8.252;2023-07-13T14:11:30;6.38;;;1.10;;
37407;SDS011;24866;50.248;8.252;2023-07-13T14:14:01;3.10;;;0.55;;
37407;SDS011;24866;50.248;8.252;2023-07-13T14:16:33;3.13;;;1.23;;
37407;SDS011;24866;50.248;8.252;2023-07-13T14:19:03;2.90;;;0.93;;
37407;SDS011;24866;50.248;8.252;2023-07-13T14:21:33;3.05;;;0.80;;
37407;SDS011;24866;50.248;8.252;2023-07-13T14:24:03;1.63;;;0.50;;
37407;SDS011;24866;50.248;8.252;2023-07-13T14:26:35;4.10;;;0.90;;
37407;SDS011;24866;50.248;8.252;2023-07-13T14:29:11;3.42;;;1.05;;
37407;SDS011;24866;50.248;8.252;2023-07-13T14:31:44;2.78;;;0.90;;
37407;SDS011;24866;50.248;8.252;2023-07-13T14:34:14;2.47;;;0.87;;
37407;SDS011;24866;50.248;8.252;2023-07-13T14:36:45;2.95;;;0.80;;
37407;SDS011;24866;50.248;8.252;2023-07-13T14:39:18;8.38;;;1.17;;
37407;SDS011;24866;50.248;8.252;2023-07-13T14:41:49;2.13;;;0.80;;
37407;SDS011;24866;50.248;8.252;2023-07-13T14:44:22;4.00;;;1.20;;
37407;SDS011;24866;50.248;8.252;2023-07-13T14:46:55;3.90;;;1.00;;
37407;SDS011;24866;50.248;8.252;2023-07-13T14:49:28;5.60;;;1.35;;
37407;SDS011;24866;50.248;8.252;2023-07-13T14:52:00;2.70;;;1.05;;
37407;SDS011;24866;50.248;8.252;2023-07-13T14:54:32;2.58;;;0.88;;
37407;SDS011;24866;50.248;8.252;2023-07-13T14:57:02;3.45;;;1.25;;
37407;SDS011;24866;50.248;8.252;2023-07-13T14:59:33;3.13;;;1.15;;
37407;SDS011;24866;50.248;8.252;2023-07-13T15:02:08;3.25;;;0.80;;
37407;SDS011;24866;50.248;8.252;2023-07-13T15:04:45;2.20;;;0.90;;
37407;SDS011;24866;50.248;8.252;2023-07-13T15:07:15;2.00;;;0.85;;
37407;SDS011;24866;50.248;8.252;2023-07-13T15:09:48;3.80;;;1.10;;
37407;SDS011;24866;50.248;8.252;2023-07-13T15:12:18;5.38;;;0.88;;
37407;SDS011;24866;50.248;8.252;2023-07-13T15:14:49;2.42;;;0.90;;
37407;SDS011;24866;50.248;8.252;2023-07-13T15:17:23;6.05;;;0.80;;
37407;SDS011;24866;50.248;8.252;2023-07-13T15:19:56;5.55;;;1.10;;
37407;SDS011;24866;50.248;8.252;2023-07-13T15:22:27;2.42;;;0.85;;
37407;SDS011;24866;50.248;8.252;2023-07-13T15:24:57;3.88;;;0.80;;